Time;durP1;ratioP1;P1;durP2;ratioP2;P2;SDS_P1;SDS_P2;PMS_P1;PMS_P2;Temp;Humidity;BMP_temperature;BMP_pressure;BME280_temperature;BME280_humidity;BME280_pressure;Samples;Min_cycle;Max_cycle;Signal;HPM_P1;HPM_P2
2023/02/26 00:00:33;;;;;;;5.20;3.40;;;;;;;4.84;62.50;97726.88;235531;1197;138668;-75
2023/02/26 00:06:00;;;;;;;5.70;3.50;;;;;;;4.86;62.66;97738.13;235681;1193;139154;-77
2023/02/26 00:11:07;;;;;;;6.50;3.20;;;;;;;4.87;62.73;97748.13;235154;1193;138355;-76
2023/02/26 00:16:31;;;;;;;5.20;3.10;;;;;;;4.84;62.53;97759.52;235143;1196;139790;-76
2023/02/26 00:21:36;;;;;;;5.20;3.00;;;;;;;4.83;62.08;97768.93;235553;1193;138203;-77
2023/02/26 00:26:39;;;;;;;4.80;2.80;;;;;;;4.82;61.92;97776.14;235316;1197;140720;-76
2023/02/26 00:31:44;;;;;;;4.10;2.80;;;;;;;4.77;61.76;97786.80;235514;1193;137963;-77
2023/02/26 00:36:53;;;;;;;2.80;1.90;;;;;;;4.66;61.40;97793.23;229865;1199;138690;-80
2023/02/26 00:42:36;;;;;;;5.00;3.30;;;;;;;4.58;61.40;97794.63;234565;1197;139554;-77
2023/02/26 00:48:14;;;;;;;4.60;2.90;;;;;;;4.62;60.92;97805.23;235410;1193;138851;-77
2023/02/26 00:53:39;;;;;;;5.80;3.20;;;;;;;4.52;60.86;97820.77;231861;1193;138406;-79
2023/02/26 00:58:43;;;;;;;6.40;3.30;;;;;;;4.49;61.00;97832.34;235601;1196;138468;-80
2023/02/26 01:03:47;;;;;;;6.60;3.30;;;;;;;4.51;60.85;97832.41;235330;1193;138786;-78
2023/02/26 01:09:01;;;;;;;7.90;3.50;;;;;;;4.50;61.08;97834.92;233995;1193;138936;-78
2023/02/26 01:14:06;;;;;;;5.90;3.00;;;;;;;4.51;60.77;97836.81;234882;1193;139314;-78
2023/02/26 01:19:25;;;;;;;7.90;3.10;;;;;;;4.42;60.84;97839.77;233884;1197;139025;-76
2023/02/26 01:24:30;;;;;;;5.30;3.20;;;;;;;4.41;60.93;97828.79;230593;1199;138073;-77
2023/02/26 01:29:34;;;;;;;5.20;3.30;;;;;;;4.43;61.04;97825.31;234994;1196;139021;-75
2023/02/26 01:34:51;;;;;;;6.30;4.20;;;;;;;4.37;61.12;97815.98;235451;1193;138054;-76
2023/02/26 01:40:04;;;;;;;6.20;3.00;;;;;;;4.34;61.71;97814.77;235338;1193;138852;-75
2023/02/26 01:45:16;;;;;;;5.70;3.00;;;;;;;4.35;62.02;97810.52;235364;1196;138095;-76
2023/02/26 01:50:24;;;;;;;6.10;3.00;;;;;;;4.35;61.96;97816.31;235179;1196;138358;-79
2023/02/26 01:55:29;;;;;;;4.80;3.20;;;;;;;4.34;62.01;97829.86;235303;1193;140160;-79
2023/02/26 02:00:33;;;;;;;5.70;3.00;;;;;;;4.32;62.01;97838.23;235493;1193;138755;-79
2023/02/26 02:05:49;;;;;;;5.40;3.30;;;;;;;4.34;61.86;97848.98;235546;1193;138816;-80
2023/02/26 02:11:08;;;;;;;4.30;3.30;;;;;;;4.40;61.56;97858.50;234508;1192;138247;-79
2023/02/26 02:16:46;;;;;;;8.10;3.70;;;;;;;4.43;61.14;97865.52;235371;1193;138064;-80
2023/02/26 02:22:06;;;;;;;3.70;2.70;;;;;;;4.47;61.17;97872.51;233696;1197;138350;-78
2023/02/26 02:27:29;;;;;;;5.00;3.10;;;;;;;4.45;59.98;97869.65;234327;1193;138994;-79
2023/02/26 02:32:43;;;;;;;4.30;2.50;;;;;;;4.32;60.04;97874.95;235231;1193;138438;-79
2023/02/26 02:38:13;;;;;;;4.70;2.70;;;;;;;4.27;59.56;97889.09;235247;1193;139229;-79
2023/02/26 02:43:23;;;;;;;5.70;2.80;;;;;;;4.38;59.45;97909.02;235433;1194;139475;-77
2023/02/26 02:48:32;;;;;;;4.60;2.70;;;;;;;4.40;59.23;97920.16;235445;1193;138728;-76
2023/02/26 02:53:49;;;;;;;4.20;2.50;;;;;;;4.39;59.27;97927.41;235360;1193;139557;-77
2023/02/26 02:58:57;;;;;;;5.00;2.70;;;;;;;4.36;59.43;97928.46;234661;1196;138407;-75
2023/02/26 03:04:10;;;;;;;4.50;2.90;;;;;;;4.35;59.24;97931.84;234374;1192;138629;-77
2023/02/26 03:09:16;;;;;;;4.20;2.90;;;;;;;4.31;59.57;97927.98;235328;1193;138955;-74
2023/02/26 03:14:20;;;;;;;4.50;2.70;;;;;;;4.33;59.62;97923.35;235483;1193;141214;-77
2023/02/26 03:19:40;;;;;;;5.80;3.00;;;;;;;4.32;60.09;97917.09;232614;1193;138514;-79
2023/02/26 03:24:54;;;;;;;5.60;2.90;;;;;;;4.32;60.57;97917.42;232103;1196;138100;-79
2023/02/26 03:30:01;;;;;;;4.90;2.50;;;;;;;4.33;60.19;97926.70;228951;1199;140231;-79
2023/02/26 03:35:17;;;;;;;4.00;2.40;;;;;;;4.27;59.47;97946.83;231999;1192;138876;-78
2023/02/26 03:40:40;;;;;;;3.70;2.40;;;;;;;4.25;59.48;97967.84;235386;1192;138241;-77
2023/02/26 03:46:24;;;;;;;4.20;2.60;;;;;;;4.24;58.90;97980.48;235211;1195;139270;-78
2023/02/26 03:51:39;;;;;;;4.60;2.20;;;;;;;4.15;59.21;97991.03;235418;1194;140099;-77
2023/02/26 03:57:04;;;;;;;5.10;2.30;;;;;;;4.17;59.23;97994.08;235220;1196;139242;-75
2023/02/26 04:02:43;;;;;;;3.30;2.00;;;;;;;4.15;59.41;97996.80;235256;1193;138570;-75
2023/02/26 04:07:51;;;;;;;5.40;2.40;;;;;;;4.12;58.96;98004.02;235399;1193;138610;-77
2023/02/26 04:12:59;;;;;;;3.20;2.00;;;;;;;4.09;58.49;98009.80;233539;1193;138725;-76
2023/02/26 04:18:13;;;;;;;5.90;2.00;;;;;;;4.10;58.15;98025.88;232234;1193;138288;-76
2023/02/26 04:23:18;;;;;;;3.90;2.10;;;;;;;4.09;58.19;98037.70;232655;1196;139216;-76
2023/02/26 04:28:22;;;;;;;3.80;2.10;;;;;;;4.11;58.03;98043.19;235410;1196;138621;-75
2023/02/26 04:33:26;;;;;;;3.70;1.60;;;;;;;4.07;57.53;98058.83;235412;1192;138850;-75
2023/02/26 04:38:32;;;;;;;4.90;2.10;;;;;;;4.02;57.15;98066.80;235232;1193;138715;-76
2023/02/26 04:43:36;;;;;;;;;;;;;;;4.08;56.81;98072.14;235393;1193;137858;-76
2023/02/26 04:49:07;;;;;;;3.90;2.50;;;;;;;3.97;56.82;98083.39;233897;1193;124996;-76
2023/02/26 04:54:11;;;;;;;3.30;2.00;;;;;;;3.96;56.45;98091.16;234968;1192;138570;-76
2023/02/26 04:59:18;;;;;;;2.00;1.60;;;;;;;3.87;56.52;98091.27;234694;1196;138600;-76
2023/02/26 05:04:21;;;;;;;2.90;1.50;;;;;;;3.86;56.02;98096.05;235326;1196;138813;-75
2023/02/26 05:09:26;;;;;;;2.50;1.40;;;;;;;3.83;55.41;98101.83;235368;1192;138448;-75
2023/02/26 05:14:31;;;;;;;2.10;1.50;;;;;;;3.83;55.23;98109.17;235376;1193;138696;-73
2023/02/26 05:19:35;;;;;;;6.00;2.20;;;;;;;3.78;55.15;98124.34;235275;1196;138904;-76
2023/02/26 05:24:40;;;;;;;3.30;1.80;;;;;;;3.75;55.14;98136.06;235344;1193;139723;-76
2023/02/26 05:29:45;;;;;;;3.20;2.10;;;;;;;3.57;55.55;98139.20;235353;1192;138144;-89
2023/02/26 05:34:56;;;;;;;4.50;1.90;;;;;;;3.61;56.28;98144.30;235408;1192;138572;-78
2023/02/26 05:40:06;;;;;;;77.50;47.80;;;;;;;3.55;55.89;98149.98;234663;1192;139043;-78
2023/02/26 05:45:10;;;;;;;54.20;32.50;;;;;;;3.60;55.92;98154.86;235294;1193;139488;-77
2023/02/26 05:50:14;;;;;;;7.00;3.90;;;;;;;3.59;56.23;98176.47;232277;1193;139365;-80
2023/02/26 05:55:18;;;;;;;3.50;2.40;;;;;;;3.60;55.71;98188.89;232625;1193;138839;-80
2023/02/26 06:00:22;;;;;;;4.20;2.40;;;;;;;3.56;56.02;98210.45;234494;1193;140080;-80
2023/02/26 06:05:26;;;;;;;121.00;77.50;;;;;;;3.52;56.52;98215.88;235394;1192;138736;-77
2023/02/26 06:10:32;;;;;;;6.70;4.10;;;;;;;3.67;56.75;98225.75;232001;1192;139566;-82
2023/02/26 06:15:42;;;;;;;5.20;2.70;;;;;;;3.66;56.65;98229.83;235342;1193;138608;-79
2023/02/26 06:20:45;;;;;;;4.50;2.80;;;;;;;3.59;57.55;98235.07;235270;1193;138713;-80
2023/02/26 06:25:51;;;;;;;6.80;2.50;;;;;;;3.48;58.12;98240.31;230365;1196;137764;-76
2023/02/26 06:30:55;;;;;;;6.10;2.40;;;;;;;3.42;59.37;98258.61;233563;1196;139663;-80
2023/02/26 06:35:59;;;;;;;4.40;2.50;;;;;;;3.41;60.52;98282.51;231703;1193;139459;-80
2023/02/26 06:41:07;;;;;;;4.50;2.50;;;;;;;3.38;61.30;98289.84;235554;1192;138634;-80
2023/02/26 06:46:13;;;;;;;6.20;3.00;;;;;;;3.27;61.21;98291.22;235300;1192;139286;-78
2023/02/26 06:51:16;;;;;;;169.90;113.90;;;;;;;3.24;62.07;98290.11;235428;1192;138597;-78
2023/02/26 06:56:20;;;;;;;8.80;5.50;;;;;;;3.33;62.47;98288.31;235270;1193;139550;-76
2023/02/26 07:01:35;;;;;;;6.30;3.40;;;;;;;3.35;61.58;98293.33;235366;1196;138393;-76
2023/02/26 07:06:40;;;;;;;5.00;2.80;;;;;;;3.37;60.22;98305.64;235528;1193;138867;-76
2023/02/26 07:11:44;;;;;;;6.50;3.10;;;;;;;3.42;59.69;98306.66;233170;1193;139418;-76
2023/02/26 07:16:49;;;;;;;6.80;3.10;;;;;;;3.51;58.80;98313.96;235381;1192;140646;-76
2023/02/26 07:21:53;;;;;;;6.10;2.70;;;;;;;3.62;58.15;98302.96;230854;1197;139877;-73
2023/02/26 07:26:57;;;;;;;4.30;2.30;;;;;;;3.70;57.47;98306.98;234114;1193;138359;-79
2023/02/26 07:32:01;;;;;;;5.70;2.50;;;;;;;3.85;56.73;98312.42;235316;1196;223476;-72
2023/02/26 07:37:05;;;;;;;17.60;10.90;;;;;;;4.00;56.29;98306.08;235310;1193;140462;-74
2023/02/26 07:42:08;;;;;;;5.10;2.60;;;;;;;4.09;55.44;98315.16;235548;1196;139001;-72
2023/02/26 07:47:14;;;;;;;4.40;2.50;;;;;;;3.93;54.56;98328.19;235412;1193;138610;-72
2023/02/26 07:52:18;;;;;;;6.20;3.00;;;;;;;3.76;55.34;98342.33;235413;1192;138478;-73
2023/02/26 07:57:22;;;;;;;4.70;2.50;;;;;;;3.55;55.64;98360.63;235355;1193;139477;-72
2023/02/26 08:02:26;;;;;;;4.20;2.40;;;;;;;3.48;56.10;98369.36;235487;1192;138103;-73
2023/02/26 08:07:29;;;;;;;4.30;2.60;;;;;;;3.49;56.45;98380.36;235368;1193;138817;-72
2023/02/26 08:12:33;;;;;;;4.50;2.40;;;;;;;3.55;56.58;98390.27;235541;1193;139171;-71
2023/02/26 08:17:36;;;;;;;77.00;42.00;;;;;;;3.60;56.29;98400.04;235381;1192;138355;-72
2023/02/26 08:22:40;;;;;;;49.20;28.10;;;;;;;3.73;56.46;98409.82;235267;1193;139679;-71
2023/02/26 08:27:44;;;;;;;4.90;2.50;;;;;;;3.82;56.09;98416.45;235432;1193;139929;-71
2023/02/26 08:32:48;;;;;;;4.60;2.60;;;;;;;3.68;55.32;98420.55;235463;1196;140159;-71
2023/02/26 08:37:52;;;;;;;5.20;2.60;;;;;;;3.64;55.76;98429.15;235444;1193;138941;-70
2023/02/26 08:42:55;;;;;;;3.70;2.10;;;;;;;3.71;55.42;98436.02;235515;1192;139594;-71
2023/02/26 08:48:02;;;;;;;5.80;2.40;;;;;;;3.75;55.20;98441.48;232949;1193;138570;-72
2023/02/26 08:53:06;;;;;;;59.90;41.00;;;;;;;3.81;55.29;98456.81;234539;1194;139082;-74
2023/02/26 08:58:20;;;;;;;6.50;3.80;;;;;;;3.84;55.58;98460.41;235392;1196;139306;-72
2023/02/26 09:03:23;;;;;;;4.90;2.40;;;;;;;3.85;55.19;98463.69;235355;1193;140009;-72
2023/02/26 09:08:32;;;;;;;4.50;2.30;;;;;;;3.87;55.41;98469.02;235225;1193;138679;-71
2023/02/26 09:13:36;;;;;;;3.40;1.90;;;;;;;3.92;55.31;98476.52;233345;1195;138039;-72
2023/02/26 09:18:45;;;;;;;4.30;2.20;;;;;;;3.94;54.30;98483.09;234983;1192;139016;-72
2023/02/26 09:23:51;;;;;;;5.60;2.30;;;;;;;3.98;53.87;98490.83;230511;1196;138653;-73
2023/02/26 09:28:56;;;;;;;4.50;2.20;;;;;;;3.98;54.36;98501.54;233583;1193;139195;-71
2023/02/26 09:34:00;;;;;;;2.40;1.40;;;;;;;4.06;54.52;98509.77;235299;1193;138166;-71
2023/02/26 09:39:05;;;;;;;1.90;1.30;;;;;;;4.06;53.63;98520.31;235444;1193;138629;-71
2023/02/26 09:44:22;;;;;;;2.20;1.40;;;;;;;4.21;53.23;98519.13;235297;1193;138860;-71
2023/02/26 09:49:35;;;;;;;2.60;1.80;;;;;;;4.29;53.04;98520.51;235376;1193;138092;-71
2023/02/26 09:54:45;;;;;;;4.20;3.00;;;;;;;4.48;53.71;98522.63;235561;1192;138430;-69
2023/02/26 09:59:50;;;;;;;4.90;2.70;;;;;;;4.68;52.29;98529.10;229024;1193;139014;-74
2023/02/26 10:05:25;;;;;;;4.60;1.70;;;;;;;4.63;53.37;98531.96;234306;1193;138434;-71
2023/02/26 10:11:00;;;;;;;128.30;80.20;;;;;;;4.65;52.03;98539.59;235271;1193;139049;-73
2023/02/26 10:16:10;;;;;;;6.30;4.10;;;;;;;4.76;51.59;98539.43;235264;1192;138844;-74
2023/02/26 10:21:22;;;;;;;4.80;2.40;;;;;;;4.91;52.03;98544.37;235198;1192;138697;-72
2023/02/26 10:26:32;;;;;;;4.30;2.30;;;;;;;5.03;51.96;98555.39;232138;1193;139270;-72
2023/02/26 10:31:50;;;;;;;3.70;2.00;;;;;;;5.18;51.37;98567.88;234630;1192;138711;-72
2023/02/26 10:37:07;;;;;;;4.40;2.50;;;;;;;5.21;50.18;98569.45;235566;1192;138764;-72
2023/02/26 10:42:20;;;;;;;3.20;1.90;;;;;;;5.11;50.31;98582.83;235479;1193;138208;-74
2023/02/26 10:47:50;;;;;;;3.30;1.90;;;;;;;5.11;50.39;98577.52;235362;1192;138289;-72
2023/02/26 10:52:54;;;;;;;4.30;2.20;;;;;;;5.54;50.89;98575.80;231929;1193;139283;-73
2023/02/26 10:58:24;;;;;;;4.10;2.10;;;;;;;5.95;51.45;98570.81;235643;1192;139097;-72
2023/02/26 11:03:39;;;;;;;4.90;2.30;;;;;;;6.14;51.01;98580.55;235408;1196;138730;-72
2023/02/26 11:08:45;;;;;;;3.60;2.10;;;;;;;6.05;50.58;98590.75;235413;1196;139246;-73
2023/02/26 11:13:48;;;;;;;7.20;2.00;;;;;;;5.80;50.04;98601.27;235434;1193;139342;-77
2023/02/26 11:18:59;;;;;;;10.20;5.70;;;;;;;5.65;51.89;98618.21;235333;1193;138551;-75
2023/02/26 11:24:16;;;;;;;3.60;2.40;;;;;;;5.60;50.18;98625.48;235198;1194;139126;-75
2023/02/26 11:29:22;;;;;;;4.10;2.30;;;;;;;5.46;50.42;98638.48;235187;1192;138834;-74
2023/02/26 11:34:25;;;;;;;3.10;2.20;;;;;;;5.24;49.59;98649.90;235202;1193;138732;-76
2023/02/26 11:39:35;;;;;;;6.10;2.90;;;;;;;5.05;50.66;98655.87;235159;1193;138387;-75
2023/02/26 11:44:43;;;;;;;3.50;2.00;;;;;;;4.94;50.47;98670.27;235238;1196;139010;-75
2023/02/26 11:49:55;;;;;;;3.30;1.90;;;;;;;4.86;50.18;98677.30;235519;1196;138925;-75
2023/02/26 11:55:04;;;;;;;2.50;1.70;;;;;;;4.75;50.24;98677.45;235400;1193;138335;-75
2023/02/26 12:00:22;;;;;;;4.60;2.40;;;;;;;4.73;50.99;98680.88;234611;1197;138309;-76
2023/02/26 12:05:26;;;;;;;3.30;2.00;;;;;;;4.78;50.67;98686.46;235408;1193;138596;-76
2023/02/26 12:11:07;;;;;;;4.40;2.00;;;;;;;4.82;49.75;98690.32;232963;1195;139398;-75
2023/02/26 12:16:34;;;;;;;5.40;2.20;;;;;;;4.79;49.34;98682.91;235401;1193;145650;-75
2023/02/26 12:22:01;;;;;;;3.30;2.00;;;;;;;4.85;50.02;98685.43;235352;1192;139510;-75
2023/02/26 12:27:11;;;;;;;4.20;1.90;;;;;;;4.90;49.52;98688.34;235663;1196;138151;-75
2023/02/26 12:32:37;;;;;;;4.80;2.50;;;;;;;4.99;49.83;98694.81;235265;1195;138628;-75
2023/02/26 12:37:52;;;;;;;6.60;3.00;;;;;;;5.08;50.46;98704.61;235345;1194;139368;-76
2023/02/26 12:43:10;;;;;;;4.30;2.60;;;;;;;5.18;50.80;98709.08;235459;1194;138226;-72
2023/02/26 12:48:48;;;;;;;4.50;2.40;;;;;;;5.13;51.35;98722.30;234502;1195;138820;-73
2023/02/26 12:53:56;;;;;;;6.40;2.90;;;;;;;5.01;52.33;98731.98;235328;1192;139709;-76
2023/02/26 12:59:03;;;;;;;15.40;10.80;;;;;;;5.05;53.70;98731.14;235424;1192;138828;-78
2023/02/26 13:04:22;;;;;;;6.10;3.40;;;;;;;5.11;53.15;98739.12;235391;1193;139348;-63
2023/02/26 13:10:34;;;;;;;;;;;;;;;;;;;;;
2023/02/26 13:16:44;;;;;;;;;;;;;;;;;;;;;
2023/02/26 13:23:12;;;;;;;4.30;2.60;;;;;;;4.82;53.66;98773.06;235514;1193;140086;-65
2023/02/26 13:29:23;;;;;;;24.60;14.20;;;;;;;4.74;55.60;98787.84;235413;1196;139308;-65
2023/02/26 13:35:25;;;;;;;;;;;;;;;;;;;;;
2023/02/26 13:41:51;;;;;;;7.20;4.20;;;;;;;4.79;53.46;98808.90;235491;1193;138628;-66
2023/02/26 13:48:12;;;;;;;8.90;5.50;;;;;;;4.87;53.87;98816.81;234668;1198;138525;-65
2023/02/26 13:54:07;;;;;;;;;;;;;;;;;;;;;
2023/02/26 14:00:33;;;;;;;5.30;2.90;;;;;;;4.91;53.00;98825.27;234636;1200;138366;-64
2023/02/26 14:13:41;;;;;;;7.50;3.10;;;;;;;4.81;51.80;98837.62;234603;1199;138913;-64
2023/02/26 14:19:34;;;;;;;;;;;;;;;;;;;;;
2023/02/26 14:25:48;;;;;;;;;;;;;;;;;;;;;
2023/02/26 14:31:35;;;;;;;;;;;;;;;;;;;;;
2023/02/26 14:37:58;;;;;;;;;;;;;;;;;;;;;
2023/02/26 14:44:53;;;;;;;5.90;3.30;;;;;;;4.62;51.14;98855.98;234981;1196;140072;-64
2023/02/26 14:51:05;;;;;;;4.80;3.10;;;;;;;4.58;51.03;98854.05;234954;1195;138717;-64
2023/02/26 15:03:15;;;;;;;;;;;;;;;;;;;;;
2023/02/26 15:18:11;;;;;;;7.00;4.20;;;;;;;4.60;51.08;98884.33;234659;1194;138602;-64
2023/02/26 15:24:52;;;;;;;4.20;2.50;;;;;;;4.49;50.88;98883.37;234906;1193;138134;-65
2023/02/26 15:31:44;;;;;;;;;;;;;;;;;;;;;
2023/02/26 15:37:57;;;;;;;;;;;;;;;;;;;;;
2023/02/26 15:45:06;;;;;;;;;;;;;;;;;;;;;
2023/02/26 15:50:54;;;;;;;6.20;3.30;;;;;;;4.09;51.53;98941.66;235516;1193;138054;-65
2023/02/26 15:57:12;;;;;;;8.20;3.60;;;;;;;4.05;51.81;98956.19;235687;1193;138241;-64
2023/02/26 16:02:37;;;;;;;9.50;5.60;;;;;;;4.09;53.58;98980.63;235579;1192;138074;-66
2023/02/26 16:08:48;;;;;;;7.00;3.70;;;;;;;4.07;53.00;98999.13;235735;1192;138044;-64
2023/02/26 16:15:19;;;;;;;5.70;3.50;;;;;;;3.93;52.73;99012.63;235585;1192;138582;-66
2023/02/26 16:21:44;;;;;;;6.20;3.70;;;;;;;3.86;53.31;99029.52;235439;1193;138347;-66
2023/02/26 16:27:43;;;;;;;;;;;;;;;;;;;;;
2023/02/26 16:41:13;;;;;;;6.30;3.90;;;;;;;3.87;53.02;99064.09;234913;1196;138600;-68
2023/02/26 16:46:40;;;;;;;;;;;;;;;;;;;;;
2023/02/26 16:52:56;;;;;;;6.40;3.50;;;;;;;3.76;53.42;99079.71;235612;1193;138231;-65
2023/02/26 16:59:08;;;;;;;6.80;3.70;;;;;;;3.74;53.62;99090.50;235546;1193;138446;-66
2023/02/26 17:05:27;;;;;;;5.80;3.30;;;;;;;3.72;53.56;99101.27;235464;1193;138447;-64
2023/02/26 17:11:50;;;;;;;;;;;;;;;;;;;;;
2023/02/26 17:25:04;;;;;;;7.80;3.90;;;;;;;3.71;53.73;99121.98;235388;1192;138196;-66
2023/02/26 17:30:39;;;;;;;7.00;3.70;;;;;;;3.70;54.32;99126.59;235585;1193;138596;-64
2023/02/26 17:37:27;;;;;;;8.40;4.40;;;;;;;3.70;53.74;99136.92;235242;1193;137898;-64
2023/02/26 17:51:12;;;;;;;50.70;34.70;;;;;;;3.64;54.68;99151.19;234757;1196;138085;-65
2023/02/26 17:56:50;;;;;;;;;;;;;;;;;;;;;
2023/02/26 18:03:29;;;;;;;;;;;;;;;;;;;;;
2023/02/26 18:10:42;;;;;;;7.40;4.50;;;;;;;3.73;53.77;99157.04;234439;1196;138045;-64
2023/02/26 18:17:09;;;;;;;6.90;4.30;;;;;;;3.64;53.43;99140.98;234817;1200;138738;-66
2023/02/26 18:23:16;;;;;;;;;;;;;;;;;;;;;
2023/02/26 18:29:12;;;;;;;;;;;;;;;;;;;;;
2023/02/26 18:44:01;;;;;;;;;;;;;;;;;;;;;
2023/02/26 18:50:37;;;;;;;12.60;5.90;;;;;;;3.59;53.89;99180.81;235031;1195;138726;-65
2023/02/26 18:57:21;;;;;;;11.60;5.90;;;;;;;3.58;53.66;99194.52;235394;1193;138447;-65
2023/02/26 19:03:56;;;;;;;11.70;5.50;;;;;;;3.59;53.75;99208.71;235202;1195;138754;-66
2023/02/26 19:10:24;;;;;;;;;;;;;;;;;;;;;
2023/02/26 19:23:01;;;;;;;;;;;;;;;;;;;;;
2023/02/26 19:29:24;;;;;;;;;;;;;;;;;;;;;
2023/02/26 19:35:36;;;;;;;10.90;5.60;;;;;;;3.56;53.22;99221.39;235049;1193;138335;-64
2023/02/26 19:42:15;;;;;;;12.20;6.20;;;;;;;3.58;53.21;99236.98;235260;1194;138109;-64
2023/02/26 19:47:55;;;;;;;11.30;5.60;;;;;;;3.56;52.44;99252.28;235237;1196;138312;-63
2023/02/26 19:53:36;;;;;;;37.00;21.80;;;;;;;3.59;53.15;99253.78;235219;1193;139819;-66
2023/02/26 20:02:50;;;;;;;13.50;6.00;;;;;;;3.76;53.25;99272.73;230927;1206;635516;-69
2023/02/26 20:09:17;;;;;;;32.90;20.40;;;;;;;3.74;53.44;99274.73;234943;1199;138515;-65
2023/02/26 20:15:23;;;;;;;11.50;5.70;;;;;;;3.77;52.44;99272.52;234938;1196;138844;-67
2023/02/26 20:21:10;;;;;;;;;;;;;;;;;;;;;
2023/02/26 20:26:19;;;;;;;10.60;5.10;;;;;;;3.63;51.84;99283.13;235472;1192;138728;-65
2023/02/26 20:32:00;;;;;;;10.80;5.10;;;;;;;3.61;51.83;99290.02;235842;1190;138792;-68
2023/02/26 20:38:26;;;;;;;13.00;6.70;;;;;;;3.59;52.39;99299.72;235532;1193;138920;-66
2023/02/26 20:44:39;;;;;;;12.30;5.70;;;;;;;3.58;52.00;99295.73;235586;1192;138946;-66
2023/02/26 20:50:39;;;;;;;11.00;5.60;;;;;;;3.61;52.03;99302.49;235797;1191;138909;-66
2023/02/26 20:57:08;;;;;;;12.40;6.30;;;;;;;3.60;51.59;99304.98;230387;1212;635892;-65
2023/02/26 21:02:50;;;;;;;;;;;;;;;;;;;;;
2023/02/26 21:08:20;;;;;;;;;;;;;;;;;;;;;
2023/02/26 21:14:05;;;;;;;;;;;;;;;;;;;;;
2023/02/26 21:20:20;;;;;;;13.40;5.30;;;;;;;3.48;52.33;99318.66;234728;1199;140765;-65
2023/02/26 21:26:24;;;;;;;;;;;;;;;;;;;;;
2023/02/26 21:32:50;;;;;;;9.10;5.30;;;;;;;3.42;51.93;99314.09;235095;1196;138525;-68
2023/02/26 21:51:52;;;;;;;;;;;;;;;;;;;;;
2023/02/26 21:58:08;;;;;;;;;;;;;;;;;;;;;
2023/02/26 22:17:31;;;;;;;14.50;6.80;;;;;;;3.44;52.05;99358.23;235119;1196;138561;-67
2023/02/26 22:31:58;;;;;;;;;;;;;;;;;;;;;
2023/02/26 22:44:35;;;;;;;15.40;7.00;;;;;;;3.38;52.55;99369.44;234788;1196;139377;-64
2023/02/26 22:50:13;;;;;;;12.70;6.60;;;;;;;3.36;52.71;99376.33;234751;1199;138369;-69
2023/02/26 23:03:09;;;;;;;15.90;7.90;;;;;;;3.39;52.87;99377.84;229754;1212;635797;-65
2023/02/26 23:09:41;;;;;;;14.00;6.90;;;;;;;3.41;52.91;99389.88;234799;1199;138214;-64
2023/02/26 23:16:06;;;;;;;;;;;;;;;;;;;;;
2023/02/26 23:28:15;;;;;;;17.70;9.00;;;;;;;3.36;53.48;99406.51;234661;1199;138712;-65
2023/02/26 23:33:52;;;;;;;15.20;8.50;;;;;;;3.35;54.10;99408.28;235190;1195;139634;-68
2023/02/26 23:39:57;;;;;;;;;;;;;;;3.38;54.97;99412.92;235067;1195;137479;-66
2023/02/26 23:46:04;;;;;;;16.50;8.90;;;;;;;3.41;55.28;99414.95;235227;1195;125265;-64
2023/02/26 23:52:29;;;;;;;16.00;8.70;;;;;;;3.44;55.68;99420.83;235088;1196;139597;-65
2023/02/26 23:58:26;;;;;;;14.90;8.50;;;;;;;3.46;55.62;99426.91;235184;1196;138234;-66
